Station info - map view · info · telemetry · weather · raw · status · beacons · messages · bulletins · browse · moving · my account
Callsign, ship name or locator: Clear       
It is possible to search using wildcards (*?) after a prefix. Example: OH*
APRS station KE0PUI-9 - show graphs
Map loading...
Comment: 146.580MHz Old Man Tan 4runner
Mic-E message: In service
Location: 39°33.59' N 105°05.57' W - locator DM79KN84UI - show map - static map
1.8 miles Southeast bearing 133° from Ken Caryl, Jefferson County, Colorado, United States [?]
2.3 miles Southwest bearing 213° from Columbine, Jefferson County, Colorado, United States
13.7 miles Southwest bearing 205° from Denver, Denver County, Colorado, United States
52.2 miles North bearing 344° from Colorado Springs, El Paso County, Colorado, United States
Last position: 2020-10-11 21:19:55 EDT (18d 12h23m ago)
2020-10-11 19:19:55 MDT local time at Ken Caryl, United States [?]
Altitude: 5568 ft
Course: 322°
Speed: 0 MPH
Device: Yaesu: FTM-400DR (rig)
Last path: KE0PUI-9>S9SSUY via qAR,WA0GEH-10
Positions stored: 3493
Stations near current position of KE0PUI-9 - show more
callsign distance last heard - EDT      callsign distance last heard - EDT
EW51231.0 miles 73°2020-10-30 09:42:47 K0JPY-91.2 miles 353°2020-10-17 09:08:19
KE0UWX-91.2 miles 68°2020-10-03 09:33:53 KE0WBH-71.3 miles 77°2020-10-21 18:17:40
K0EAS-91.3 miles 330°2020-10-08 23:48:20 KF0V-71.4 miles 89°2020-10-11 10:53:27
KF0V-91.4 miles 89°2020-10-11 12:25:32 KD8WCZ-51.4 miles 4°2020-10-07 17:55:09
KD8WCZ-101.4 miles 4°2020-10-08 13:22:16 KD8WCZ-71.4 miles 4°2020-10-28 13:21:00
EW45601.6 miles 357°2020-10-30 09:40:29 KE0UWX-71.7 miles 66°2020-10-01 21:28:22
K1DUN-N1.7 miles 276°2020-10-30 09:31:44 KF0AGN-91.8 miles 304°2020-10-21 23:18:47
FW74602.0 miles 123°2020-10-26 19:02:43 K0NIK-92.1 miles 63°2020-10-23 03:28:35
K1MGB-92.1 miles 77°2020-10-09 00:00:10 EW71002.2 miles 26°2020-10-30 09:39:44
FW57932.6 miles 316°2020-10-30 09:31:02 FW47773.1 miles 342°2020-10-30 09:42:46
Stations which heard KE0PUI-9 directly on radio –
callsign pkts first heard - EDT last heard longest (tx => rx) longest at - EDT
WERNER 11 2020-10-11 14:38:24 2020-10-11 16:30:54 DM79AL > DN60PK 80.8 miles 327° 2020-10-11 16:30:54
CLIMAX 1 2020-10-11 14:29:21 2020-10-11 14:29:21 DM79BM > DM69VJ 20.1 miles 243° 2020-10-11 14:29:21
SWANMT 4 2020-10-11 13:18:01 2020-10-11 16:13:21 DM79BM > DM69XO 11.3 miles 288° 2020-10-11 13:18:01
METHOD 23 2020-10-11 11:51:13 2020-10-11 17:45:50 DM79CM > DM68XK 75.3 miles 188° 2020-10-11 13:11:59
DTSERO 1 2020-10-11 14:32:45 2020-10-11 14:32:45 DM79BM > DM69JP 70.0 miles 279° 2020-10-11 14:32:45
QUAIL 1 2020-10-11 14:25:23 2020-10-11 14:25:23 DM79BM > DM69TA 43.5 miles 219° 2020-10-11 14:25:23
AC0VP-10 2 2020-10-11 10:42:55 2020-10-11 18:16:01 DM79GK > DM79GK 2.5 miles 76° 2020-10-11 18:16:01
K0XK-5 8 2020-10-11 09:40:38 2020-10-11 18:41:08 DM79IN > DM79OO 25.1 miles 80° 2020-10-11 10:29:32
N4YRE 9 2020-10-11 09:26:54 2020-10-11 21:01:57 DM79JO > DM79NQ 18.8 miles 78° 2020-10-11 10:20:16
ERIDGE 1 2020-10-11 12:50:11 2020-10-11 12:50:11 DM79CM > DM69SU 38.9 miles 305° 2020-10-11 12:50:11
W0ARP 2 2020-10-11 13:59:07 2020-10-11 18:02:39 DM79BM > DM79QL 64.9 miles 92° 2020-10-11 13:59:07
W0ARP-3 14 2020-10-11 09:37:38 2020-10-11 18:38:08 DM79CM > DM79QL 63.1 miles 92° 2020-10-11 13:06:00
N0AUX-1 28 2020-10-11 09:30:25 2020-10-11 21:00:01 DM79BM > DM79KG 43.8 miles 115° 2020-10-11 14:05:31
N6BA-10 1 2020-10-11 18:50:28 2020-10-11 18:50:28 DM79KN > DM79OI 23.3 miles 130° 2020-10-11 18:50:28
WD4IXD-12 7 2020-10-11 11:59:08 2020-10-11 17:35:08 DM79CM > DM79CC 28.6 miles 177° 2020-10-11 12:09:26
WA0GEH-10 26 2020-10-11 09:39:04 2020-10-11 21:19:55 DM79KO > DM79MM 11.5 miles 116° 2020-10-11 10:04:14
PVLY 4 2020-10-11 12:51:36 2020-10-11 14:10:32 DM79BM > DM79RE 75.5 miles 108° 2020-10-11 14:10:32
W0ARP-1 3 2020-10-11 12:35:05 2020-10-11 18:44:28 DM79CM > DM79QL 62.5 miles 91° 2020-10-11 12:52:22
W0UPS-15 1 2020-10-11 19:12:01 2020-10-11 19:12:01 DM79MM > DN70JN 71.8 miles 349° 2020-10-11 19:12:01
NCFPD 1 2020-10-11 10:53:13 2020-10-11 10:53:13 DM79FK > DM79VK 71.0 miles 88° 2020-10-11 10:53:13
N0GQ-1 5 2020-10-11 09:29:54 2020-10-11 11:42:09 DM79CL > DM79PI 60.7 miles 98° 2020-10-11 11:37:17
KC0CVU-7 6 2020-10-11 13:55:40 2020-10-11 17:25:08 DM79BM > DM79FB 38.1 miles 151° 2020-10-11 13:57:57

Only position packets which were originated by the station are shown here. The range statistics show some extra long hops, because some digipeaters do not correctly add themselves to the digipeater path. Please check the raw packets.
About this site
This page shows real-time information collected from the Automatic Position Reporting System Internet network (APRS-IS). APRS is used by amateur (ham) radio operators to transmit real-time position information, weather data, telemetry and messages over the radio. A vehicle equipped with a GPS receiver, a VHF transmitter or HF transceiver and a small computer device called a tracker transmits it's location, speed and course in a small data packet, which is then received by a nearby iGate receiving site which forwards the packet on the Internet. Systems connected to the Internet can send information on the APRS-IS without a radio transmitter, or collect and display information transmitted anywhere in the world.
User guide · FAQ · Blog · Discussion group · Linking to aprs.fi · AIS sites · Service status · Database statistics · Advertising on aprs.fi · Technical details · API · Change log · Planned changes · Credits and thanks · Terms Of Service · iPhone/iPad APRS